This is the latest recevied weather packets stored in our database for station/object N7CW. If no packets are shown the sender has not sent any weather packets the latest 10 day(s).
| Time | Temp. | Humidity | Pressure | Rain* | Wind** | Luminosity | Snow |
|---|---|---|---|---|---|---|---|
| 1777460937 | 3.89° C | 45% | 1019.1 hPa | 0 mm | - | 0 W/m² | - |
| 1777460632 | 4.44° C | 44% | 1019 hPa | 0 mm | - | 0 W/m² | - |
| 1777460329 | 5° C | 42% | 1019.1 hPa | 0 mm | - | 0 W/m² | - |
| 1777460026 | 4.44° C | 42% | 1019.1 hPa | 0 mm | - | 0 W/m² | - |
| 1777459723 | 4.44° C | 44% | 1019.2 hPa | 0 mm | - | 0 W/m² | - |
| 1777459419 | 5° C | 42% | 1019 hPa | 0 mm | - | 0 W/m² | - |
| 1777459116 | 5° C | 41% | 1019 hPa | 0 mm | - | 0 W/m² | - |
| 1777458814 | 5° C | 43% | 1019.2 hPa | 0 mm | - | 0 W/m² | - |
| 1777458504 | 5.56° C | 42% | 1019.1 hPa | 0 mm | - | 0 W/m² | - |
| 1777458202 | 6.11° C | 39% | 1019.1 hPa | 0 mm | - | 0 W/m² | - |
| 1777457896 | 6.67° C | 38% | 1019 hPa | 0 mm | - | 0 W/m² | - |
| 1777457592 | 6.67° C | 38% | 1019.1 hPa | 0 mm | - | 0 W/m² | - |
| 1777457288 | 6.67° C | 38% | 1018.8 hPa | 0 mm | - | 0 W/m² | - |
| 1777456984 | 5° C | 42% | 1019.1 hPa | 0 mm | - | 0 W/m² | - |
| 1777456678 | 3.89° C | 44% | 1019.1 hPa | 0 mm | - | 0 W/m² | - |
| 1777456373 | 4.44° C | 43% | 1019 hPa | 0 mm | - | 0 W/m² | - |
| 1777456070 | 5.56° C | 42% | 1019 hPa | 0 mm | - | 0 W/m² | - |
| 1777455766 | 4.44° C | 43% | 1019.1 hPa | 0 mm | - | 0 W/m² | - |
| 1777455463 | 4.44° C | 45% | 1019.1 hPa | 0 mm | - | 0 W/m² | - |
| 1777455159 | 4.44° C | 43% | 1019 hPa | 0 mm | - | 0 W/m² | - |
| 1777454857 | 4.44° C | 43% | 1019 hPa | 0 mm | - | 0 W/m² | - |
| 1777454553 | 3.89° C | 45% | 1018.7 hPa | 0 mm | - | 0 W/m² | - |
| 1777454249 | 5° C | 43% | 1018.7 hPa | 0 mm | - | 0 W/m² | - |
| 1777453947 | 5° C | 43% | 1018.7 hPa | 0 mm | - | 0 W/m² | - |
| 1777453643 | 5° C | 42% | 1018.8 hPa | 0 mm | - | 0 W/m² | - |
* Rain latest hour (hover to see other rain measurements)
** Current wind speed in m/s (hover to see current wind gust speed)